sensor_id;sensor_type;location;lat;lon;timestamp;P1;durP1;ratioP1;P2;durP2;ratioP2
53261;SDS011;39658;51.090;-1.786;2023-03-01T00:01:00;5.25;;;1.63;;
53261;SDS011;39658;51.090;-1.786;2023-03-01T00:03:28;3.50;;;1.10;;
53261;SDS011;39658;51.090;-1.786;2023-03-01T00:05:56;3.58;;;1.58;;
53261;SDS011;39658;51.090;-1.786;2023-03-01T00:08:22;3.70;;;2.15;;
53261;SDS011;39658;51.090;-1.786;2023-03-01T00:10:49;5.30;;;1.80;;
53261;SDS011;39658;51.090;-1.786;2023-03-01T00:15:52;4.90;;;1.83;;
53261;SDS011;39658;51.090;-1.786;2023-03-01T00:18:19;4.03;;;1.50;;
53261;SDS011;39658;51.090;-1.786;2023-03-01T00:20:49;4.00;;;1.92;;
53261;SDS011;39658;51.090;-1.786;2023-03-01T00:23:17;4.17;;;1.80;;
53261;SDS011;39658;51.090;-1.786;2023-03-01T00:25:44;5.33;;;1.80;;
53261;SDS011;39658;51.090;-1.786;2023-03-01T00:28:11;4.10;;;1.65;;
53261;SDS011;39658;51.090;-1.786;2023-03-01T00:30:38;4.15;;;2.30;;
53261;SDS011;39658;51.090;-1.786;2023-03-01T00:33:04;6.72;;;2.00;;
53261;SDS011;39658;51.090;-1.786;2023-03-01T00:35:31;4.97;;;2.42;;
53261;SDS011;39658;51.090;-1.786;2023-03-01T00:37:58;5.82;;;2.55;;
53261;SDS011;39658;51.090;-1.786;2023-03-01T00:40:27;4.38;;;1.77;;
53261;SDS011;39658;51.090;-1.786;2023-03-01T00:42:55;4.85;;;1.73;;
53261;SDS011;39658;51.090;-1.786;2023-03-01T00:45:22;6.57;;;2.17;;
53261;SDS011;39658;51.090;-1.786;2023-03-01T00:47:49;5.18;;;1.80;;
53261;SDS011;39658;51.090;-1.786;2023-03-01T00:50:16;4.45;;;2.22;;
53261;SDS011;39658;51.090;-1.786;2023-03-01T00:52:44;5.80;;;2.28;;
53261;SDS011;39658;51.090;-1.786;2023-03-01T00:55:11;4.82;;;2.55;;
53261;SDS011;39658;51.090;-1.786;2023-03-01T00:57:39;5.03;;;1.98;;
53261;SDS011;39658;51.090;-1.786;2023-03-01T01:00:07;4.85;;;2.10;;
53261;SDS011;39658;51.090;-1.786;2023-03-01T01:02:35;7.28;;;2.60;;
53261;SDS011;39658;51.090;-1.786;2023-03-01T01:05:02;4.57;;;2.17;;
53261;SDS011;39658;51.090;-1.786;2023-03-01T01:07:29;6.35;;;2.10;;
53261;SDS011;39658;51.090;-1.786;2023-03-01T01:09:56;5.25;;;1.98;;
53261;SDS011;39658;51.090;-1.786;2023-03-01T01:12:22;6.38;;;2.55;;
53261;SDS011;39658;51.090;-1.786;2023-03-01T01:14:51;6.32;;;2.67;;
53261;SDS011;39658;51.090;-1.786;2023-03-01T01:17:17;5.55;;;2.67;;
53261;SDS011;39658;51.090;-1.786;2023-03-01T01:19:44;5.45;;;2.63;;
53261;SDS011;39658;51.090;-1.786;2023-03-01T01:22:11;4.95;;;2.58;;
53261;SDS011;39658;51.090;-1.786;2023-03-01T01:24:38;4.90;;;2.17;;
53261;SDS011;39658;51.090;-1.786;2023-03-01T01:27:04;6.00;;;2.67;;
53261;SDS011;39658;51.090;-1.786;2023-03-01T01:29:32;5.80;;;2.77;;
53261;SDS011;39658;51.090;-1.786;2023-03-01T01:32:00;6.45;;;3.05;;
53261;SDS011;39658;51.090;-1.786;2023-03-01T01:34:27;5.85;;;2.58;;
53261;SDS011;39658;51.090;-1.786;2023-03-01T01:36:54;9.07;;;3.10;;
53261;SDS011;39658;51.090;-1.786;2023-03-01T01:39:21;7.35;;;2.97;;
53261;SDS011;39658;51.090;-1.786;2023-03-01T01:41:48;6.25;;;2.83;;
53261;SDS011;39658;51.090;-1.786;2023-03-01T01:44:16;5.57;;;2.70;;
53261;SDS011;39658;51.090;-1.786;2023-03-01T01:46:46;6.30;;;2.83;;
53261;SDS011;39658;51.090;-1.786;2023-03-01T01:51:57;5.05;;;2.10;;
53261;SDS011;39658;51.090;-1.786;2023-03-01T01:54:29;6.47;;;2.95;;
53261;SDS011;39658;51.090;-1.786;2023-03-01T01:57:06;5.40;;;2.25;;
53261;SDS011;39658;51.090;-1.786;2023-03-01T01:59:36;5.90;;;3.42;;
53261;SDS011;39658;51.090;-1.786;2023-03-01T02:02:05;5.93;;;2.70;;
53261;SDS011;39658;51.090;-1.786;2023-03-01T02:04:33;5.47;;;2.70;;
53261;SDS011;39658;51.090;-1.786;2023-03-01T02:07:01;5.55;;;2.83;;
53261;SDS011;39658;51.090;-1.786;2023-03-01T02:09:32;6.85;;;3.35;;
53261;SDS011;39658;51.090;-1.786;2023-03-01T02:12:00;6.00;;;2.70;;
53261;SDS011;39658;51.090;-1.786;2023-03-01T02:14:28;7.38;;;3.45;;
53261;SDS011;39658;51.090;-1.786;2023-03-01T02:16:54;6.70;;;3.20;;
53261;SDS011;39658;51.090;-1.786;2023-03-01T02:19:26;6.05;;;2.58;;
53261;SDS011;39658;51.090;-1.786;2023-03-01T02:22:05;6.53;;;2.65;;
53261;SDS011;39658;51.090;-1.786;2023-03-01T02:27:10;5.75;;;2.92;;
53261;SDS011;39658;51.090;-1.786;2023-03-01T02:29:39;6.97;;;3.15;;
53261;SDS011;39658;51.090;-1.786;2023-03-01T02:32:09;6.30;;;2.35;;
53261;SDS011;39658;51.090;-1.786;2023-03-01T02:34:38;6.20;;;3.15;;
53261;SDS011;39658;51.090;-1.786;2023-03-01T02:37:06;6.70;;;2.80;;
53261;SDS011;39658;51.090;-1.786;2023-03-01T02:39:39;6.65;;;3.03;;
53261;SDS011;39658;51.090;-1.786;2023-03-01T02:42:09;5.30;;;2.53;;
53261;SDS011;39658;51.090;-1.786;2023-03-01T02:44:40;4.50;;;2.00;;
53261;SDS011;39658;51.090;-1.786;2023-03-01T02:47:07;8.18;;;2.65;;
53261;SDS011;39658;51.090;-1.786;2023-03-01T02:49:34;3.58;;;1.73;;
53261;SDS011;39658;51.090;-1.786;2023-03-01T02:52:22;4.75;;;2.15;;
53261;SDS011;39658;51.090;-1.786;2023-03-01T02:55:01;3.75;;;1.63;;
53261;SDS011;39658;51.090;-1.786;2023-03-01T02:57:29;6.50;;;2.90;;
53261;SDS011;39658;51.090;-1.786;2023-03-01T03:00:01;4.43;;;1.90;;
53261;SDS011;39658;51.090;-1.786;2023-03-01T03:02:32;6.97;;;2.38;;
53261;SDS011;39658;51.090;-1.786;2023-03-01T03:05:06;4.53;;;2.28;;
53261;SDS011;39658;51.090;-1.786;2023-03-01T03:07:34;5.00;;;2.40;;
53261;SDS011;39658;51.090;-1.786;2023-03-01T03:10:03;3.67;;;1.60;;
53261;SDS011;39658;51.090;-1.786;2023-03-01T03:12:31;4.57;;;1.90;;
53261;SDS011;39658;51.090;-1.786;2023-03-01T03:14:59;5.80;;;2.65;;
53261;SDS011;39658;51.090;-1.786;2023-03-01T03:17:26;4.72;;;2.45;;
53261;SDS011;39658;51.090;-1.786;2023-03-01T03:19:52;4.32;;;2.10;;
53261;SDS011;39658;51.090;-1.786;2023-03-01T03:22:19;5.68;;;1.98;;
53261;SDS011;39658;51.090;-1.786;2023-03-01T03:24:46;6.15;;;2.50;;
53261;SDS011;39658;51.090;-1.786;2023-03-01T03:27:13;3.85;;;1.58;;
53261;SDS011;39658;51.090;-1.786;2023-03-01T03:29:40;4.63;;;2.38;;
53261;SDS011;39658;51.090;-1.786;2023-03-01T03:32:08;4.47;;;2.37;;
53261;SDS011;39658;51.090;-1.786;2023-03-01T03:34:34;6.50;;;2.57;;
53261;SDS011;39658;51.090;-1.786;2023-03-01T03:37:01;4.72;;;2.28;;
53261;SDS011;39658;51.090;-1.786;2023-03-01T03:39:28;4.22;;;1.63;;
53261;SDS011;39658;51.090;-1.786;2023-03-01T03:41:59;5.85;;;2.25;;
53261;SDS011;39658;51.090;-1.786;2023-03-01T03:44:26;4.80;;;2.30;;
53261;SDS011;39658;51.090;-1.786;2023-03-01T03:46:53;4.85;;;2.63;;
53261;SDS011;39658;51.090;-1.786;2023-03-01T03:49:21;7.53;;;2.38;;
53261;SDS011;39658;51.090;-1.786;2023-03-01T03:51:48;5.30;;;2.38;;
53261;SDS011;39658;51.090;-1.786;2023-03-01T03:54:15;5.85;;;2.70;;
53261;SDS011;39658;51.090;-1.786;2023-03-01T03:56:42;6.63;;;3.38;;
53261;SDS011;39658;51.090;-1.786;2023-03-01T03:59:09;5.15;;;2.40;;
53261;SDS011;39658;51.090;-1.786;2023-03-01T04:01:36;6.45;;;3.35;;
53261;SDS011;39658;51.090;-1.786;2023-03-01T04:04:03;5.95;;;3.22;;
53261;SDS011;39658;51.090;-1.786;2023-03-01T04:06:34;6.68;;;2.88;;
53261;SDS011;39658;51.090;-1.786;2023-03-01T04:09:01;6.13;;;3.20;;
53261;SDS011;39658;51.090;-1.786;2023-03-01T04:11:28;6.93;;;2.90;;
53261;SDS011;39658;51.090;-1.786;2023-03-01T04:13:55;9.18;;;3.40;;
53261;SDS011;39658;51.090;-1.786;2023-03-01T04:16:23;5.78;;;3.13;;
53261;SDS011;39658;51.090;-1.786;2023-03-01T04:18:50;5.78;;;2.80;;
53261;SDS011;39658;51.090;-1.786;2023-03-01T04:21:17;8.18;;;3.63;;
53261;SDS011;39658;51.090;-1.786;2023-03-01T04:23:46;7.03;;;3.00;;
53261;SDS011;39658;51.090;-1.786;2023-03-01T04:26:13;7.03;;;2.97;;
53261;SDS011;39658;51.090;-1.786;2023-03-01T04:28:40;6.53;;;3.20;;
53261;SDS011;39658;51.090;-1.786;2023-03-01T04:31:10;6.22;;;3.15;;
53261;SDS011;39658;51.090;-1.786;2023-03-01T04:33:39;7.13;;;3.38;;
53261;SDS011;39658;51.090;-1.786;2023-03-01T04:36:07;8.65;;;3.47;;
53261;SDS011;39658;51.090;-1.786;2023-03-01T04:38:35;6.32;;;3.08;;
53261;SDS011;39658;51.090;-1.786;2023-03-01T04:41:05;7.20;;;3.53;;
53261;SDS011;39658;51.090;-1.786;2023-03-01T04:43:32;7.00;;;3.03;;
53261;SDS011;39658;51.090;-1.786;2023-03-01T04:46:00;6.90;;;3.63;;
53261;SDS011;39658;51.090;-1.786;2023-03-01T04:48:28;6.20;;;3.30;;
53261;SDS011;39658;51.090;-1.786;2023-03-01T04:50:55;7.88;;;3.72;;
53261;SDS011;39658;51.090;-1.786;2023-03-01T04:53:22;6.88;;;3.08;;
53261;SDS011;39658;51.090;-1.786;2023-03-01T04:55:49;6.30;;;3.25;;
53261;SDS011;39658;51.090;-1.786;2023-03-01T04:58:17;8.60;;;3.50;;
53261;SDS011;39658;51.090;-1.786;2023-03-01T05:00:44;6.43;;;3.28;;
53261;SDS011;39658;51.090;-1.786;2023-03-01T05:03:11;6.78;;;3.10;;
53261;SDS011;39658;51.090;-1.786;2023-03-01T05:05:43;6.05;;;2.90;;
53261;SDS011;39658;51.090;-1.786;2023-03-01T05:08:10;6.22;;;3.03;;
53261;SDS011;39658;51.090;-1.786;2023-03-01T05:10:42;7.03;;;3.28;;
53261;SDS011;39658;51.090;-1.786;2023-03-01T05:13:11;7.20;;;2.88;;
53261;SDS011;39658;51.090;-1.786;2023-03-01T05:15:39;5.82;;;1.92;;
53261;SDS011;39658;51.090;-1.786;2023-03-01T05:18:06;4.50;;;1.98;;
53261;SDS011;39658;51.090;-1.786;2023-03-01T05:20:36;7.28;;;2.22;;
53261;SDS011;39658;51.090;-1.786;2023-03-01T05:23:04;6.10;;;2.60;;
53261;SDS011;39658;51.090;-1.786;2023-03-01T05:25:31;6.80;;;2.25;;
53261;SDS011;39658;51.090;-1.786;2023-03-01T05:27:59;7.05;;;2.53;;
53261;SDS011;39658;51.090;-1.786;2023-03-01T05:30:29;8.20;;;2.78;;
53261;SDS011;39658;51.090;-1.786;2023-03-01T05:32:58;5.55;;;2.30;;
53261;SDS011;39658;51.090;-1.786;2023-03-01T05:35:25;5.22;;;2.30;;
53261;SDS011;39658;51.090;-1.786;2023-03-01T05:37:52;4.75;;;2.28;;
53261;SDS011;39658;51.090;-1.786;2023-03-01T05:40:20;5.22;;;1.90;;
53261;SDS011;39658;51.090;-1.786;2023-03-01T05:42:49;4.97;;;2.13;;
53261;SDS011;39658;51.090;-1.786;2023-03-01T05:45:18;5.63;;;2.20;;
53261;SDS011;39658;51.090;-1.786;2023-03-01T05:47:46;5.28;;;2.30;;
53261;SDS011;39658;51.090;-1.786;2023-03-01T05:50:16;7.53;;;1.80;;
53261;SDS011;39658;51.090;-1.786;2023-03-01T05:52:45;6.68;;;2.75;;
53261;SDS011;39658;51.090;-1.786;2023-03-01T05:55:13;5.88;;;2.15;;
53261;SDS011;39658;51.090;-1.786;2023-03-01T05:57:40;5.05;;;2.25;;
53261;SDS011;39658;51.090;-1.786;2023-03-01T06:00:07;7.53;;;2.70;;
53261;SDS011;39658;51.090;-1.786;2023-03-01T06:02:35;5.47;;;2.90;;
53261;SDS011;39658;51.090;-1.786;2023-03-01T06:05:03;5.53;;;2.05;;
53261;SDS011;39658;51.090;-1.786;2023-03-01T06:07:31;5.05;;;2.25;;
53261;SDS011;39658;51.090;-1.786;2023-03-01T06:09:58;5.40;;;2.13;;
53261;SDS011;39658;51.090;-1.786;2023-03-01T06:12:25;5.38;;;2.72;;
53261;SDS011;39658;51.090;-1.786;2023-03-01T06:14:52;5.75;;;2.33;;
53261;SDS011;39658;51.090;-1.786;2023-03-01T06:17:18;6.82;;;2.72;;
53261;SDS011;39658;51.090;-1.786;2023-03-01T06:19:46;6.18;;;2.55;;
53261;SDS011;39658;51.090;-1.786;2023-03-01T06:22:13;5.50;;;2.78;;
53261;SDS011;39658;51.090;-1.786;2023-03-01T06:24:41;7.20;;;3.40;;
53261;SDS011;39658;51.090;-1.786;2023-03-01T06:27:08;6.55;;;3.00;;
53261;SDS011;39658;51.090;-1.786;2023-03-01T06:29:34;6.03;;;2.90;;
53261;SDS011;39658;51.090;-1.786;2023-03-01T06:32:01;6.68;;;3.30;;
53261;SDS011;39658;51.090;-1.786;2023-03-01T06:34:28;5.88;;;2.70;;
53261;SDS011;39658;51.090;-1.786;2023-03-01T06:36:55;6.40;;;2.75;;
53261;SDS011;39658;51.090;-1.786;2023-03-01T06:39:22;6.05;;;3.05;;
53261;SDS011;39658;51.090;-1.786;2023-03-01T06:41:50;6.57;;;2.63;;
53261;SDS011;39658;51.090;-1.786;2023-03-01T06:44:17;7.05;;;3.05;;
53261;SDS011;39658;51.090;-1.786;2023-03-01T06:46:44;7.07;;;2.60;;
53261;SDS011;39658;51.090;-1.786;2023-03-01T06:49:10;8.25;;;3.65;;
53261;SDS011;39658;51.090;-1.786;2023-03-01T06:51:37;5.75;;;2.60;;
53261;SDS011;39658;51.090;-1.786;2023-03-01T06:54:04;6.63;;;2.67;;
53261;SDS011;39658;51.090;-1.786;2023-03-01T06:56:31;5.80;;;1.98;;
53261;SDS011;39658;51.090;-1.786;2023-03-01T06:58:59;6.68;;;3.10;;
53261;SDS011;39658;51.090;-1.786;2023-03-01T07:01:27;5.47;;;2.88;;
53261;SDS011;39658;51.090;-1.786;2023-03-01T07:03:54;6.15;;;2.85;;
53261;SDS011;39658;51.090;-1.786;2023-03-01T07:06:21;5.18;;;1.88;;
53261;SDS011;39658;51.090;-1.786;2023-03-01T07:08:48;5.63;;;2.67;;
53261;SDS011;39658;51.090;-1.786;2023-03-01T07:11:15;7.22;;;2.38;;
53261;SDS011;39658;51.090;-1.786;2023-03-01T07:13:42;6.10;;;2.45;;
53261;SDS011;39658;51.090;-1.786;2023-03-01T07:16:10;5.00;;;2.40;;
53261;SDS011;39658;51.090;-1.786;2023-03-01T07:18:37;4.68;;;2.40;;
53261;SDS011;39658;51.090;-1.786;2023-03-01T07:21:04;4.72;;;1.83;;
53261;SDS011;39658;51.090;-1.786;2023-03-01T07:23:31;4.75;;;1.60;;
53261;SDS011;39658;51.090;-1.786;2023-03-01T07:25:58;5.75;;;2.28;;
53261;SDS011;39658;51.090;-1.786;2023-03-01T07:28:25;5.40;;;2.53;;
53261;SDS011;39658;51.090;-1.786;2023-03-01T07:30:53;5.72;;;2.00;;
53261;SDS011;39658;51.090;-1.786;2023-03-01T07:33:21;5.65;;;2.17;;
53261;SDS011;39658;51.090;-1.786;2023-03-01T07:35:48;4.97;;;2.30;;
53261;SDS011;39658;51.090;-1.786;2023-03-01T07:38:21;5.22;;;2.80;;
53261;SDS011;39658;51.090;-1.786;2023-03-01T07:40:48;7.20;;;2.30;;
53261;SDS011;39658;51.090;-1.786;2023-03-01T07:43:15;6.20;;;2.00;;
53261;SDS011;39658;51.090;-1.786;2023-03-01T07:45:41;4.40;;;2.00;;
53261;SDS011;39658;51.090;-1.786;2023-03-01T07:48:08;3.85;;;1.48;;
53261;SDS011;39658;51.090;-1.786;2023-03-01T07:50:36;4.07;;;1.67;;
53261;SDS011;39658;51.090;-1.786;2023-03-01T07:53:03;4.20;;;1.33;;
53261;SDS011;39658;51.090;-1.786;2023-03-01T07:55:30;5.05;;;1.45;;
53261;SDS011;39658;51.090;-1.786;2023-03-01T07:57:56;3.72;;;1.10;;
53261;SDS011;39658;51.090;-1.786;2023-03-01T08:00:23;4.40;;;1.27;;
53261;SDS011;39658;51.090;-1.786;2023-03-01T08:02:50;5.95;;;2.05;;
53261;SDS011;39658;51.090;-1.786;2023-03-01T08:05:17;3.63;;;1.30;;
53261;SDS011;39658;51.090;-1.786;2023-03-01T08:07:45;4.65;;;1.60;;
53261;SDS011;39658;51.090;-1.786;2023-03-01T08:10:12;4.40;;;1.70;;
53261;SDS011;39658;51.090;-1.786;2023-03-01T08:12:39;4.10;;;1.73;;
53261;SDS011;39658;51.090;-1.786;2023-03-01T08:15:07;3.45;;;1.50;;
53261;SDS011;39658;51.090;-1.786;2023-03-01T08:17:34;4.57;;;1.73;;
53261;SDS011;39658;51.090;-1.786;2023-03-01T08:20:01;4.72;;;2.47;;
53261;SDS011;39658;51.090;-1.786;2023-03-01T08:22:31;5.35;;;2.45;;
53261;SDS011;39658;51.090;-1.786;2023-03-01T08:24:59;3.90;;;1.27;;
53261;SDS011;39658;51.090;-1.786;2023-03-01T08:27:26;7.47;;;1.80;;
53261;SDS011;39658;51.090;-1.786;2023-03-01T08:29:53;4.25;;;2.00;;
53261;SDS011;39658;51.090;-1.786;2023-03-01T08:32:19;5.15;;;1.70;;
53261;SDS011;39658;51.090;-1.786;2023-03-01T08:34:46;6.10;;;1.80;;
53261;SDS011;39658;51.090;-1.786;2023-03-01T08:37:13;4.88;;;1.80;;
53261;SDS011;39658;51.090;-1.786;2023-03-01T08:39:40;3.90;;;1.30;;
53261;SDS011;39658;51.090;-1.786;2023-03-01T08:42:08;4.70;;;2.22;;
53261;SDS011;39658;51.090;-1.786;2023-03-01T08:44:35;4.13;;;1.45;;
53261;SDS011;39658;51.090;-1.786;2023-03-01T08:47:02;5.68;;;1.50;;
53261;SDS011;39658;51.090;-1.786;2023-03-01T08:49:29;3.83;;;1.63;;
53261;SDS011;39658;51.090;-1.786;2023-03-01T08:51:57;4.95;;;1.70;;
53261;SDS011;39658;51.090;-1.786;2023-03-01T08:54:24;5.65;;;1.45;;
53261;SDS011;39658;51.090;-1.786;2023-03-01T08:56:51;3.47;;;1.52;;
53261;SDS011;39658;51.090;-1.786;2023-03-01T08:59:19;5.50;;;1.48;;
53261;SDS011;39658;51.090;-1.786;2023-03-01T09:01:46;4.13;;;1.23;;
53261;SDS011;39658;51.090;-1.786;2023-03-01T09:04:12;4.70;;;1.48;;
53261;SDS011;39658;51.090;-1.786;2023-03-01T09:06:41;3.15;;;1.58;;
53261;SDS011;39658;51.090;-1.786;2023-03-01T09:09:10;4.97;;;1.98;;
53261;SDS011;39658;51.090;-1.786;2023-03-01T09:11:41;4.10;;;1.10;;
53261;SDS011;39658;51.090;-1.786;2023-03-01T09:14:09;4.03;;;1.40;;
53261;SDS011;39658;51.090;-1.786;2023-03-01T09:16:37;4.25;;;1.45;;
53261;SDS011;39658;51.090;-1.786;2023-03-01T09:19:05;3.80;;;1.13;;
53261;SDS011;39658;51.090;-1.786;2023-03-01T09:21:31;4.38;;;1.58;;
53261;SDS011;39658;51.090;-1.786;2023-03-01T09:23:58;4.32;;;1.50;;
53261;SDS011;39658;51.090;-1.786;2023-03-01T09:26:25;3.60;;;1.48;;
53261;SDS011;39658;51.090;-1.786;2023-03-01T09:28:52;3.70;;;1.60;;
53261;SDS011;39658;51.090;-1.786;2023-03-01T09:31:21;4.50;;;1.55;;
53261;SDS011;39658;51.090;-1.786;2023-03-01T09:33:51;3.53;;;1.38;;
53261;SDS011;39658;51.090;-1.786;2023-03-01T09:36:19;3.30;;;1.10;;
53261;SDS011;39658;51.090;-1.786;2023-03-01T09:38:48;2.95;;;0.82;;
53261;SDS011;39658;51.090;-1.786;2023-03-01T09:41:19;3.42;;;1.10;;
53261;SDS011;39658;51.090;-1.786;2023-03-01T09:43:57;2.53;;;0.82;;
53261;SDS011;39658;51.090;-1.786;2023-03-01T09:46:28;3.58;;;1.27;;
53261;SDS011;39658;51.090;-1.786;2023-03-01T09:49:04;2.88;;;1.33;;
53261;SDS011;39658;51.090;-1.786;2023-03-01T09:51:35;2.70;;;1.00;;
53261;SDS011;39658;51.090;-1.786;2023-03-01T09:54:02;2.33;;;1.33;;
53261;SDS011;39658;51.090;-1.786;2023-03-01T09:56:32;4.07;;;0.82;;
53261;SDS011;39658;51.090;-1.786;2023-03-01T09:59:05;1.48;;;0.50;;
53261;SDS011;39658;51.090;-1.786;2023-03-01T10:01:46;0.93;;;0.40;;
53261;SDS011;39658;51.090;-1.786;2023-03-01T10:04:36;1.23;;;0.43;;
53261;SDS011;39658;51.090;-1.786;2023-03-01T10:07:15;1.63;;;0.47;;
53261;SDS011;39658;51.090;-1.786;2023-03-01T10:09:48;1.55;;;0.50;;
53261;SDS011;39658;51.090;-1.786;2023-03-01T10:12:16;2.25;;;0.70;;
53261;SDS011;39658;51.090;-1.786;2023-03-01T10:14:49;1.48;;;0.68;;
53261;SDS011;39658;51.090;-1.786;2023-03-01T10:17:27;3.58;;;0.85;;
53261;SDS011;39658;51.090;-1.786;2023-03-01T10:20:10;2.95;;;0.82;;
53261;SDS011;39658;51.090;-1.786;2023-03-01T10:22:42;1.90;;;0.70;;
53261;SDS011;39658;51.090;-1.786;2023-03-01T10:25:14;1.50;;;0.57;;
53261;SDS011;39658;51.090;-1.786;2023-03-01T10:27:43;1.83;;;0.70;;
53261;SDS011;39658;51.090;-1.786;2023-03-01T10:30:30;4.40;;;1.10;;
53261;SDS011;39658;51.090;-1.786;2023-03-01T10:33:03;2.65;;;1.02;;
53261;SDS011;39658;51.090;-1.786;2023-03-01T10:35:41;0.95;;;0.43;;
53261;SDS011;39658;51.090;-1.786;2023-03-01T10:38:09;1.65;;;0.80;;
53261;SDS011;39658;51.090;-1.786;2023-03-01T10:43:17;1.70;;;0.70;;
53261;SDS011;39658;51.090;-1.786;2023-03-01T10:45:45;2.70;;;1.02;;
53261;SDS011;39658;51.090;-1.786;2023-03-01T10:48:13;1.73;;;0.80;;
53261;SDS011;39658;51.090;-1.786;2023-03-01T10:50:43;0.93;;;0.40;;
53261;SDS011;39658;51.090;-1.786;2023-03-01T10:53:22;2.50;;;0.90;;
53261;SDS011;39658;51.090;-1.786;2023-03-01T10:55:59;3.42;;;0.70;;
53261;SDS011;39658;51.090;-1.786;2023-03-01T10:58:27;4.53;;;1.10;;
53261;SDS011;39658;51.090;-1.786;2023-03-01T11:00:55;3.70;;;0.80;;
53261;SDS011;39658;51.090;-1.786;2023-03-01T11:03:24;2.50;;;1.15;;
53261;SDS011;39658;51.090;-1.786;2023-03-01T11:05:58;2.30;;;0.80;;
53261;SDS011;39658;51.090;-1.786;2023-03-01T11:08:34;2.92;;;0.93;;
53261;SDS011;39658;51.090;-1.786;2023-03-01T11:11:21;3.20;;;1.42;;
53261;SDS011;39658;51.090;-1.786;2023-03-01T11:13:58;2.83;;;1.15;;
53261;SDS011;39658;51.090;-1.786;2023-03-01T11:16:27;2.65;;;1.00;;
53261;SDS011;39658;51.090;-1.786;2023-03-01T11:18:58;2.53;;;0.75;;
53261;SDS011;39658;51.090;-1.786;2023-03-01T11:21:29;3.75;;;1.10;;
53261;SDS011;39658;51.090;-1.786;2023-03-01T11:24:00;2.58;;;1.13;;
53261;SDS011;39658;51.090;-1.786;2023-03-01T11:26:28;3.90;;;1.80;;
53261;SDS011;39658;51.090;-1.786;2023-03-01T11:28:58;2.67;;;1.05;;
53261;SDS011;39658;51.090;-1.786;2023-03-01T11:31:39;3.03;;;1.27;;
53261;SDS011;39658;51.090;-1.786;2023-03-01T11:34:09;3.50;;;1.10;;
53261;SDS011;39658;51.090;-1.786;2023-03-01T11:36:42;4.63;;;0.93;;
53261;SDS011;39658;51.090;-1.786;2023-03-01T11:39:18;3.08;;;1.20;;
53261;SDS011;39658;51.090;-1.786;2023-03-01T11:42:00;4.95;;;0.93;;
53261;SDS011;39658;51.090;-1.786;2023-03-01T11:44:33;3.22;;;1.00;;
53261;SDS011;39658;51.090;-1.786;2023-03-01T11:47:08;3.08;;;0.95;;
53261;SDS011;39658;51.090;-1.786;2023-03-01T11:49:51;4.45;;;1.95;;
53261;SDS011;39658;51.090;-1.786;2023-03-01T11:52:41;4.53;;;1.33;;
53261;SDS011;39658;51.090;-1.786;2023-03-01T11:55:19;3.58;;;1.30;;
53261;SDS011;39658;51.090;-1.786;2023-03-01T11:58:05;4.05;;;1.30;;
53261;SDS011;39658;51.090;-1.786;2023-03-01T12:00:54;8.20;;;1.60;;
53261;SDS011;39658;51.090;-1.786;2023-03-01T12:03:44;4.40;;;1.38;;
53261;SDS011;39658;51.090;-1.786;2023-03-01T12:06:26;4.30;;;1.75;;
53261;SDS011;39658;51.090;-1.786;2023-03-01T12:09:06;4.20;;;1.80;;
53261;SDS011;39658;51.090;-1.786;2023-03-01T12:11:56;4.13;;;1.17;;
53261;SDS011;39658;51.090;-1.786;2023-03-01T12:14:44;3.92;;;1.58;;
53261;SDS011;39658;51.090;-1.786;2023-03-01T12:17:40;5.78;;;1.50;;
53261;SDS011;39658;51.090;-1.786;2023-03-01T12:20:21;3.80;;;1.10;;
53261;SDS011;39658;51.090;-1.786;2023-03-01T12:22:59;7.05;;;1.50;;
53261;SDS011;39658;51.090;-1.786;2023-03-01T12:25:41;5.00;;;1.42;;
53261;SDS011;39658;51.090;-1.786;2023-03-01T12:34:14;5.38;;;1.25;;
53261;SDS011;39658;51.090;-1.786;2023-03-01T12:37:09;4.25;;;1.98;;
53261;SDS011;39658;51.090;-1.786;2023-03-01T12:39:51;5.35;;;2.03;;
53261;SDS011;39658;51.090;-1.786;2023-03-01T12:42:31;4.35;;;1.45;;
53261;SDS011;39658;51.090;-1.786;2023-03-01T12:45:12;4.13;;;1.52;;
53261;SDS011;39658;51.090;-1.786;2023-03-01T12:47:58;4.60;;;1.88;;
53261;SDS011;39658;51.090;-1.786;2023-03-01T12:50:37;5.18;;;2.10;;
53261;SDS011;39658;51.090;-1.786;2023-03-01T12:53:10;5.38;;;1.52;;
53261;SDS011;39658;51.090;-1.786;2023-03-01T12:55:48;4.57;;;1.55;;
53261;SDS011;39658;51.090;-1.786;2023-03-01T12:58:21;5.95;;;1.70;;
53261;SDS011;39658;51.090;-1.786;2023-03-01T13:00:56;3.70;;;1.58;;
53261;SDS011;39658;51.090;-1.786;2023-03-01T13:03:35;3.78;;;1.60;;
53261;SDS011;39658;51.090;-1.786;2023-03-01T13:06:15;3.85;;;1.20;;
53261;SDS011;39658;51.090;-1.786;2023-03-01T13:08:48;5.38;;;1.92;;
53261;SDS011;39658;51.090;-1.786;2023-03-01T13:11:22;4.20;;;1.27;;
53261;SDS011;39658;51.090;-1.786;2023-03-01T13:13:51;5.20;;;1.45;;
53261;SDS011;39658;51.090;-1.786;2023-03-01T13:16:20;4.10;;;1.70;;
53261;SDS011;39658;51.090;-1.786;2023-03-01T13:18:49;4.28;;;1.48;;
53261;SDS011;39658;51.090;-1.786;2023-03-01T13:21:31;4.72;;;1.52;;
53261;SDS011;39658;51.090;-1.786;2023-03-01T13:23:58;3.30;;;0.93;;
53261;SDS011;39658;51.090;-1.786;2023-03-01T13:26:25;3.80;;;1.58;;
53261;SDS011;39658;51.090;-1.786;2023-03-01T13:28:56;4.90;;;2.40;;
53261;SDS011;39658;51.090;-1.786;2023-03-01T13:34:39;5.10;;;1.80;;
53261;SDS011;39658;51.090;-1.786;2023-03-01T13:37:21;3.15;;;1.30;;
53261;SDS011;39658;51.090;-1.786;2023-03-01T13:39:54;3.00;;;1.20;;
53261;SDS011;39658;51.090;-1.786;2023-03-01T13:42:40;2.75;;;1.13;;
53261;SDS011;39658;51.090;-1.786;2023-03-01T13:45:31;3.72;;;1.15;;
53261;SDS011;39658;51.090;-1.786;2023-03-01T13:48:03;3.63;;;1.42;;
53261;SDS011;39658;51.090;-1.786;2023-03-01T13:50:37;3.72;;;1.10;;
53261;SDS011;39658;51.090;-1.786;2023-03-01T13:53:09;3.83;;;1.20;;
53261;SDS011;39658;51.090;-1.786;2023-03-01T13:55:43;3.70;;;1.55;;
53261;SDS011;39658;51.090;-1.786;2023-03-01T13:58:15;3.15;;;1.13;;
53261;SDS011;39658;51.090;-1.786;2023-03-01T14:00:54;3.35;;;1.23;;
53261;SDS011;39658;51.090;-1.786;2023-03-01T14:03:22;3.25;;;1.02;;
53261;SDS011;39658;51.090;-1.786;2023-03-01T14:05:59;6.03;;;1.55;;
53261;SDS011;39658;51.090;-1.786;2023-03-01T14:08:29;3.33;;;1.00;;
53261;SDS011;39658;51.090;-1.786;2023-03-01T14:11:04;3.58;;;1.05;;
53261;SDS011;39658;51.090;-1.786;2023-03-01T14:13:54;3.70;;;0.95;;
53261;SDS011;39658;51.090;-1.786;2023-03-01T14:16:44;2.75;;;1.10;;
53261;SDS011;39658;51.090;-1.786;2023-03-01T14:19:23;3.50;;;1.10;;
53261;SDS011;39658;51.090;-1.786;2023-03-01T14:21:58;3.30;;;1.30;;
53261;SDS011;39658;51.090;-1.786;2023-03-01T14:24:27;4.47;;;1.10;;
53261;SDS011;39658;51.090;-1.786;2023-03-01T14:26:57;3.38;;;1.17;;
53261;SDS011;39658;51.090;-1.786;2023-03-01T14:29:27;3.40;;;1.33;;
53261;SDS011;39658;51.090;-1.786;2023-03-01T14:32:09;3.00;;;1.30;;
53261;SDS011;39658;51.090;-1.786;2023-03-01T14:34:42;2.47;;;1.00;;
53261;SDS011;39658;51.090;-1.786;2023-03-01T14:37:11;3.42;;;1.10;;
53261;SDS011;39658;51.090;-1.786;2023-03-01T14:39:44;3.22;;;1.10;;
53261;SDS011;39658;51.090;-1.786;2023-03-01T14:42:11;3.03;;;1.38;;
53261;SDS011;39658;51.090;-1.786;2023-03-01T14:44:40;3.20;;;1.20;;
53261;SDS011;39658;51.090;-1.786;2023-03-01T14:47:11;4.03;;;0.95;;
53261;SDS011;39658;51.090;-1.786;2023-03-01T14:49:39;2.47;;;0.80;;
53261;SDS011;39658;51.090;-1.786;2023-03-01T14:52:08;1.17;;;0.55;;
53261;SDS011;39658;51.090;-1.786;2023-03-01T14:54:46;2.50;;;0.90;;
53261;SDS011;39658;51.090;-1.786;2023-03-01T14:59:42;2.58;;;0.73;;
53261;SDS011;39658;51.090;-1.786;2023-03-01T15:02:11;2.65;;;1.00;;
53261;SDS011;39658;51.090;-1.786;2023-03-01T15:04:42;2.15;;;0.77;;
53261;SDS011;39658;51.090;-1.786;2023-03-01T15:07:11;4.80;;;1.02;;
53261;SDS011;39658;51.090;-1.786;2023-03-01T15:09:39;3.58;;;1.17;;
53261;SDS011;39658;51.090;-1.786;2023-03-01T15:15:08;3.13;;;0.90;;
53261;SDS011;39658;51.090;-1.786;2023-03-01T15:17:50;2.90;;;1.30;;